Time;durP1;ratioP1;P1;durP2;ratioP2;P2;SDS_P1;SDS_P2;PMS_P1;PMS_P2;Temp;Humidity;BMP_temperature;BMP_pressure;BME280_temperature;BME280_humidity;BME280_pressure;Samples;Min_cycle;Max_cycle;Signal;HPM_P1;HPM_P2
2023/04/18 00:01:17;;;;;;;9.80;6.78;;;11.10;99.90;;;;;;4171993;28;20021;-62
2023/04/18 00:03:19;;;;;;;8.68;6.07;;;11.00;99.90;;;;;;4168477;28;20029;-62
2023/04/18 00:05:20;;;;;;;13.50;6.80;;;11.00;99.90;;;;;;4173301;28;20045;-62
2023/04/18 00:07:21;;;;;;;10.85;6.40;;;11.00;99.90;;;;;;4177475;28;20029;-62
2023/04/18 00:09:23;;;;;;;9.85;6.30;;;11.00;99.90;;;;;;4170382;28;20131;-62
2023/04/18 00:11:23;;;;;;;9.23;6.32;;;11.00;99.90;;;;;;4170391;28;20029;-62
2023/04/18 00:13:27;;;;;;;14.23;6.70;;;11.00;99.90;;;;;;4172155;28;20036;-63
2023/04/18 00:15:28;;;;;;;10.82;6.32;;;11.00;99.90;;;;;;4164711;28;20030;-63
2023/04/18 00:17:30;;;;;;;10.38;6.35;;;11.00;99.90;;;;;;4172109;28;20063;-63
2023/04/18 00:19:33;;;;;;;13.65;6.07;;;10.90;99.90;;;;;;4173396;28;20108;-62
2023/04/18 00:21:33;;;;;;;10.20;6.28;;;10.90;99.90;;;;;;4169161;28;20071;-62
2023/04/18 00:23:34;;;;;;;12.98;6.63;;;10.90;99.90;;;;;;4173110;28;20030;-62
2023/04/18 00:25:35;;;;;;;9.70;5.93;;;10.90;99.90;;;;;;4171504;28;20033;-62
2023/04/18 00:27:37;;;;;;;10.65;6.05;;;10.90;99.90;;;;;;4173006;28;20037;-62
2023/04/18 00:29:39;;;;;;;11.65;6.10;;;10.80;99.90;;;;;;4168801;28;20396;-62
2023/04/18 00:31:40;;;;;;;10.05;6.03;;;10.80;99.90;;;;;;4170721;28;20083;-62
2023/04/18 00:33:40;;;;;;;11.93;6.53;;;10.70;99.90;;;;;;4169353;28;20029;-62
2023/04/18 00:35:41;;;;;;;11.70;6.43;;;10.70;99.90;;;;;;4174000;28;20490;-62
2023/04/18 00:37:41;;;;;;;11.45;6.25;;;10.60;99.90;;;;;;4162844;28;20122;-62
2023/04/18 00:39:42;;;;;;;10.25;6.70;;;10.60;99.90;;;;;;4174748;28;20037;-63
2023/04/18 00:41:43;;;;;;;8.85;5.78;;;10.60;99.90;;;;;;4171328;28;20040;-62
2023/04/18 00:43:43;;;;;;;9.35;6.03;;;10.50;99.90;;;;;;4167166;28;20397;-63
2023/04/18 00:45:44;;;;;;;8.18;5.53;;;10.50;99.90;;;;;;4167564;28;20507;-62
2023/04/18 00:47:44;;;;;;;7.85;5.45;;;10.50;99.90;;;;;;4168133;28;20033;-62
2023/04/18 00:49:46;;;;;;;8.05;5.75;;;10.50;99.90;;;;;;4173001;28;20033;-63
2023/04/18 00:51:48;;;;;;;9.95;6.20;;;10.50;99.90;;;;;;4163317;28;20476;-63
2023/04/18 00:53:48;;;;;;;9.65;6.10;;;10.40;99.90;;;;;;4166039;28;20029;-63
2023/04/18 00:55:49;;;;;;;10.15;5.97;;;10.40;99.90;;;;;;4168885;28;20090;-62
2023/04/18 00:57:51;;;;;;;12.05;6.50;;;10.30;99.90;;;;;;4171240;28;20041;-63
2023/04/18 00:59:51;;;;;;;10.23;5.93;;;10.30;99.90;;;;;;4171423;28;20037;-62
2023/04/18 01:01:52;;;;;;;8.50;5.85;;;10.20;99.90;;;;;;4171961;28;20083;-62
2023/04/18 01:03:52;;;;;;;9.18;5.97;;;10.20;99.90;;;;;;4169470;28;20048;-63
2023/04/18 01:05:54;;;;;;;9.25;6.25;;;10.20;99.90;;;;;;4174520;28;20053;-63
2023/04/18 01:07:59;;;;;;;9.00;5.68;;;10.20;99.90;;;;;;4168874;28;20022;-63
2023/04/18 01:10:00;;;;;;;9.27;6.05;;;10.20;99.90;;;;;;4169310;28;20442;-63
2023/04/18 01:12:02;;;;;;;13.07;7.20;;;10.10;99.90;;;;;;4171935;28;20387;-63
2023/04/18 01:14:05;;;;;;;10.33;6.63;;;9.90;99.90;;;;;;4172219;28;20333;-62
2023/04/18 01:16:06;;;;;;;10.15;6.15;;;9.90;99.90;;;;;;4168709;28;20747;-62
2023/04/18 01:18:07;;;;;;;10.00;6.00;;;9.90;99.90;;;;;;4171428;28;20037;-62
2023/04/18 01:20:08;;;;;;;10.13;6.20;;;9.90;99.90;;;;;;4174025;28;20033;-63
2023/04/18 01:22:12;;;;;;;9.02;5.63;;;9.80;99.90;;;;;;4173259;28;20034;-62
2023/04/18 01:24:14;;;;;;;9.85;6.63;;;9.80;99.90;;;;;;4168371;28;20128;-62
2023/04/18 01:26:15;;;;;;;9.57;6.25;;;9.80;99.90;;;;;;4168487;28;20500;-62
2023/04/18 01:28:17;;;;;;;8.77;5.68;;;9.80;99.90;;;;;;4172462;28;20029;-63
2023/04/18 01:30:17;;;;;;;10.85;6.43;;;9.80;99.90;;;;;;4168269;28;20061;-62
2023/04/18 01:32:19;;;;;;;12.65;6.20;;;9.80;99.90;;;;;;4174869;28;20033;-62
2023/04/18 01:34:20;;;;;;;9.65;6.13;;;9.80;99.90;;;;;;4168155;28;20029;-62
2023/04/18 01:36:20;;;;;;;11.68;6.30;;;9.80;99.90;;;;;;4173090;28;20082;-63
2023/04/18 01:38:21;;;;;;;8.57;6.18;;;9.80;99.90;;;;;;4164226;28;20058;-62
2023/04/18 01:40:22;;;;;;;15.80;6.25;;;9.80;99.90;;;;;;4172257;28;20059;-63
2023/04/18 01:42:23;;;;;;;10.20;6.35;;;9.70;99.90;;;;;;4167227;28;20041;-62
2023/04/18 01:44:23;;;;;;;8.68;6.35;;;9.70;99.90;;;;;;4169580;28;20032;-62
2023/04/18 01:46:24;;;;;;;8.30;5.93;;;9.70;99.90;;;;;;4166170;28;20103;-62
2023/04/18 01:48:24;;;;;;;10.30;6.50;;;9.70;99.90;;;;;;4166375;28;20033;-62
2023/04/18 01:50:25;;;;;;;8.68;5.93;;;9.60;99.90;;;;;;4164251;28;20025;-62
2023/04/18 01:52:26;;;;;;;9.65;6.25;;;9.60;99.90;;;;;;4166975;28;20044;-62
2023/04/18 01:54:27;;;;;;;11.75;7.13;;;9.70;99.90;;;;;;4172568;28;20373;-62
2023/04/18 01:56:27;;;;;;;10.02;6.55;;;9.60;99.90;;;;;;4165647;28;20040;-63
2023/04/18 01:58:28;;;;;;;10.40;6.57;;;9.60;99.90;;;;;;4169815;28;20037;-63
2023/04/18 02:00:28;;;;;;;8.93;6.07;;;9.50;99.90;;;;;;4166503;28;20037;-63
2023/04/18 02:02:29;;;;;;;9.00;6.00;;;9.50;99.90;;;;;;4165166;28;20038;-62
2023/04/18 02:04:30;;;;;;;9.18;6.03;;;9.50;99.90;;;;;;4163804;28;20080;-63
2023/04/18 02:06:30;;;;;;;9.55;5.97;;;9.50;99.90;;;;;;4171480;28;20029;-62
2023/04/18 02:08:34;;;;;;;9.60;6.35;;;9.50;99.90;;;;;;4168105;28;20557;-63
2023/04/18 02:10:34;;;;;;;8.77;5.80;;;9.50;99.90;;;;;;4165332;28;20036;-62
2023/04/18 02:12:35;;;;;;;8.85;6.00;;;9.50;99.90;;;;;;4166490;28;20033;-62
2023/04/18 02:14:36;;;;;;;11.27;6.13;;;9.40;99.90;;;;;;4173076;28;20510;-63
2023/04/18 02:16:37;;;;;;;8.80;5.68;;;9.50;99.90;;;;;;4168096;28;20040;-63
2023/04/18 02:18:39;;;;;;;8.63;5.70;;;9.40;99.90;;;;;;4167885;28;20099;-62
2023/04/18 02:20:39;;;;;;;11.38;6.05;;;9.40;99.90;;;;;;4165823;28;20499;-63
2023/04/18 02:22:40;;;;;;;9.35;5.95;;;9.40;99.90;;;;;;4165121;28;20033;-62
2023/04/18 02:24:40;;;;;;;10.00;5.72;;;9.30;99.90;;;;;;4168854;28;20033;-62
2023/04/18 02:26:42;;;;;;;8.95;5.55;;;9.30;99.90;;;;;;4167484;28;20442;-62
2023/04/18 02:28:42;;;;;;;9.70;6.37;;;9.30;99.90;;;;;;4169803;28;20061;-62
2023/04/18 02:30:43;;;;;;;10.30;6.15;;;9.20;99.90;;;;;;4167528;28;20025;-63
2023/04/18 02:32:44;;;;;;;8.90;5.50;;;9.20;99.90;;;;;;4167114;28;20033;-62
2023/04/18 02:34:44;;;;;;;7.93;5.13;;;9.20;99.90;;;;;;4164760;28;20037;-62
2023/04/18 02:36:45;;;;;;;7.28;5.25;;;9.00;99.90;;;;;;4162617;28;20025;-62
2023/04/18 02:38:46;;;;;;;8.88;6.10;;;8.90;99.90;;;;;;4167968;28;20049;-62
2023/04/18 02:40:47;;;;;;;7.70;5.07;;;8.80;99.90;;;;;;4169409;28;20182;-62
2023/04/18 02:42:47;;;;;;;8.82;5.30;;;8.80;99.90;;;;;;4168761;28;20036;-62
2023/04/18 02:44:48;;;;;;;11.43;5.88;;;8.80;99.90;;;;;;4173034;28;20029;-62
2023/04/18 02:46:48;;;;;;;7.07;5.15;;;8.70;99.90;;;;;;4169598;28;20029;-63
2023/04/18 02:48:49;;;;;;;9.70;5.47;;;8.50;99.90;;;;;;4165287;28;20033;-62
2023/04/18 02:50:49;;;;;;;9.00;5.47;;;8.60;99.90;;;;;;4164936;28;20540;-63
2023/04/18 02:52:50;;;;;;;10.68;5.85;;;8.50;99.90;;;;;;4165882;28;20088;-62
2023/04/18 02:54:51;;;;;;;7.72;5.18;;;8.40;99.90;;;;;;4169789;28;20068;-62
2023/04/18 02:56:53;;;;;;;8.13;5.47;;;8.30;99.90;;;;;;4165647;28;20112;-62
2023/04/18 02:58:53;;;;;;;7.00;5.13;;;8.40;99.90;;;;;;4164405;28;20121;-62
2023/04/18 03:00:55;;;;;;;8.13;5.35;;;8.40;99.90;;;;;;4172157;28;20037;-62
2023/04/18 03:02:56;;;;;;;7.75;4.90;;;8.30;99.90;;;;;;4165281;28;20033;-62
2023/04/18 03:04:56;;;;;;;7.10;5.10;;;8.40;99.90;;;;;;4168238;28;20497;-62
2023/04/18 03:06:58;;;;;;;7.30;4.82;;;8.30;99.90;;;;;;4169166;28;20072;-62
2023/04/18 03:08:58;;;;;;;8.90;5.43;;;8.30;99.90;;;;;;4166961;28;20037;-62
2023/04/18 03:10:59;;;;;;;6.78;4.85;;;8.30;99.90;;;;;;4168447;28;20519;-62
2023/04/18 03:13:00;;;;;;;6.60;4.97;;;8.30;99.90;;;;;;4166755;28;20049;-62
2023/04/18 03:15:01;;;;;;;7.35;5.00;;;8.30;99.90;;;;;;4167320;28;20025;-64
2023/04/18 03:17:03;;;;;;;7.25;4.90;;;8.40;99.90;;;;;;4169199;28;20547;-63
2023/04/18 03:19:04;;;;;;;7.32;4.63;;;8.30;99.90;;;;;;4168297;28;20041;-63
2023/04/18 03:21:06;;;;;;;7.43;5.45;;;8.40;99.90;;;;;;4166107;28;20412;-63
2023/04/18 03:23:06;;;;;;;6.57;5.05;;;8.10;99.90;;;;;;4170827;28;20040;-63
2023/04/18 03:25:07;;;;;;;6.13;4.68;;;8.20;99.90;;;;;;4166445;28;20393;-63
2023/04/18 03:27:08;;;;;;;7.55;5.13;;;8.10;99.90;;;;;;4171024;28;20033;-63
2023/04/18 03:29:08;;;;;;;11.00;5.13;;;8.10;99.90;;;;;;4173840;28;20036;-62
2023/04/18 03:31:09;;;;;;;7.03;4.43;;;8.10;99.90;;;;;;4168437;28;20436;-63
2023/04/18 03:33:10;;;;;;;5.35;4.20;;;8.20;99.90;;;;;;4173617;28;20408;-62
2023/04/18 03:35:10;;;;;;;7.80;5.00;;;8.20;99.90;;;;;;4175440;28;20037;-64
2023/04/18 03:37:11;;;;;;;7.28;4.72;;;8.20;99.90;;;;;;4176752;28;20029;-62
2023/04/18 03:39:11;;;;;;;6.28;4.47;;;8.20;99.90;;;;;;4169079;28;20041;-62
2023/04/18 03:41:12;;;;;;;6.55;4.45;;;8.30;99.90;;;;;;4172231;28;20045;-62
2023/04/18 03:43:12;;;;;;;6.75;4.22;;;8.20;99.90;;;;;;4171645;28;20040;-62
2023/04/18 03:45:13;;;;;;;7.22;4.50;;;8.30;99.90;;;;;;4174348;28;20135;-62
2023/04/18 03:47:15;;;;;;;6.40;4.95;;;8.20;99.90;;;;;;4178103;28;20087;-62
2023/04/18 03:49:16;;;;;;;5.75;4.40;;;8.20;99.90;;;;;;4172609;28;20033;-63
2023/04/18 03:51:16;;;;;;;6.07;4.22;;;8.20;99.90;;;;;;4176120;28;20044;-63
2023/04/18 03:53:17;;;;;;;7.65;4.65;;;8.20;99.90;;;;;;4170856;28;20162;-62
2023/04/18 03:55:18;;;;;;;5.68;4.13;;;8.10;99.90;;;;;;4174411;28;20045;-62
2023/04/18 03:57:19;;;;;;;6.78;4.40;;;8.20;99.90;;;;;;4176525;28;20517;-62
2023/04/18 03:59:20;;;;;;;7.07;4.53;;;8.20;99.90;;;;;;4174431;28;20029;-62
2023/04/18 04:01:20;;;;;;;5.93;3.92;;;8.20;99.90;;;;;;4173522;28;20041;-62
2023/04/18 04:03:21;;;;;;;7.35;4.85;;;8.20;99.90;;;;;;4174553;28;20033;-62
2023/04/18 04:05:21;;;;;;;5.75;4.20;;;8.20;99.90;;;;;;4167494;28;20029;-62
2023/04/18 04:07:22;;;;;;;5.57;4.53;;;8.20;99.90;;;;;;4170190;28;20395;-62
2023/04/18 04:09:23;;;;;;;7.28;4.65;;;8.20;99.90;;;;;;4165530;28;20112;-62
2023/04/18 04:11:23;;;;;;;6.63;4.60;;;8.10;99.90;;;;;;4165700;28;20034;-62
2023/04/18 04:13:24;;;;;;;7.13;4.45;;;8.00;99.90;;;;;;4172141;28;20377;-62
2023/04/18 04:15:24;;;;;;;5.97;4.63;;;7.90;99.90;;;;;;4170952;28;20036;-62
2023/04/18 04:17:25;;;;;;;7.72;5.03;;;7.90;99.90;;;;;;4174016;28;20116;-62
2023/04/18 04:19:25;;;;;;;6.05;4.53;;;7.70;99.90;;;;;;4171658;28;20071;-62
2023/04/18 04:21:26;;;;;;;8.23;4.55;;;7.70;99.90;;;;;;4170418;28;20025;-62
2023/04/18 04:23:27;;;;;;;8.23;5.68;;;7.60;99.90;;;;;;4174393;28;20059;-62
2023/04/18 04:25:27;;;;;;;7.07;4.95;;;7.60;99.90;;;;;;4171488;28;20045;-63
2023/04/18 04:27:28;;;;;;;8.95;6.05;;;7.50;99.90;;;;;;4172164;28;20025;-62
2023/04/18 04:29:28;;;;;;;6.70;5.10;;;7.20;99.90;;;;;;4174001;28;20380;-62
2023/04/18 04:31:30;;;;;;;8.20;5.65;;;7.30;99.90;;;;;;4171101;28;20029;-62
2023/04/18 04:33:32;;;;;;;8.48;5.72;;;7.20;99.90;;;;;;4170484;28;20052;-63
2023/04/18 04:35:35;;;;;;;7.68;5.18;;;7.20;99.90;;;;;;4173397;28;20036;-63
2023/04/18 04:37:36;;;;;;;8.68;5.85;;;7.10;99.90;;;;;;4173868;28;20037;-63
2023/04/18 04:39:36;;;;;;;9.07;6.25;;;7.00;99.90;;;;;;4170568;28;20041;-63
2023/04/18 04:41:38;;;;;;;10.27;6.05;;;7.00;99.90;;;;;;4168337;28;20033;-63
2023/04/18 04:43:40;;;;;;;9.27;6.30;;;7.00;99.90;;;;;;4169680;28;20033;-62
2023/04/18 04:45:44;;;;;;;11.85;7.13;;;6.90;99.90;;;;;;4166915;28;20041;-62
2023/04/18 04:47:44;;;;;;;9.73;6.30;;;6.90;99.90;;;;;;4171455;28;20040;-62
2023/04/18 04:49:45;;;;;;;9.00;6.50;;;6.90;99.90;;;;;;4172961;28;20388;-62
2023/04/18 04:51:46;;;;;;;9.77;5.60;;;6.90;99.90;;;;;;4164717;28;20037;-62
2023/04/18 04:53:46;;;;;;;9.52;6.55;;;6.90;99.90;;;;;;4170090;28;20032;-62
2023/04/18 04:55:47;;;;;;;8.73;5.93;;;6.90;99.90;;;;;;4168863;28;20037;-62
2023/04/18 04:57:47;;;;;;;10.88;6.88;;;7.00;99.90;;;;;;4170599;28;20040;-62
2023/04/18 04:59:48;;;;;;;10.10;6.65;;;6.90;99.90;;;;;;4169449;28;20052;-63
2023/04/18 05:01:49;;;;;;;9.60;6.75;;;6.90;99.90;;;;;;4159824;28;20021;-62
2023/04/18 05:03:51;;;;;;;10.60;6.32;;;6.90;99.90;;;;;;4172998;28;20056;-62
2023/04/18 05:05:52;;;;;;;10.25;6.82;;;7.00;99.90;;;;;;4170966;28;20037;-62
2023/04/18 05:07:53;;;;;;;10.90;7.35;;;7.00;99.90;;;;;;4169887;28;20160;-62
2023/04/18 05:09:54;;;;;;;11.15;7.13;;;7.00;99.90;;;;;;4173887;28;20052;-62
2023/04/18 05:11:54;;;;;;;9.00;6.07;;;7.10;99.90;;;;;;4166935;28;20056;-62
2023/04/18 05:13:55;;;;;;;11.20;7.45;;;7.10;99.90;;;;;;4166501;28;20033;-62
2023/04/18 05:15:58;;;;;;;10.45;6.88;;;7.10;99.90;;;;;;4173490;28;20045;-62
2023/04/18 05:17:58;;;;;;;12.15;8.07;;;7.20;99.90;;;;;;4171171;28;20064;-62
2023/04/18 05:19:59;;;;;;;12.57;7.88;;;7.30;99.90;;;;;;4171784;28;20029;-62
2023/04/18 05:21:59;;;;;;;11.88;8.15;;;7.30;99.90;;;;;;4167182;28;20053;-62
2023/04/18 05:24:00;;;;;;;12.30;7.35;;;7.40;99.90;;;;;;4169075;28;20037;-62
2023/04/18 05:26:02;;;;;;;12.40;8.48;;;7.50;99.90;;;;;;4165570;28;20037;-62
2023/04/18 05:28:07;;;;;;;11.00;7.65;;;7.50;99.90;;;;;;4168244;28;20033;-63
2023/04/18 05:30:08;;;;;;;12.25;7.75;;;7.50;99.90;;;;;;4168839;28;20396;-63
2023/04/18 05:32:08;;;;;;;17.15;8.50;;;7.60;99.90;;;;;;4171077;28;20037;-62
2023/04/18 05:34:09;;;;;;;10.32;7.93;;;7.60;99.90;;;;;;4171340;28;20139;-62
2023/04/18 05:36:10;;;;;;;9.85;7.00;;;7.70;99.90;;;;;;4171276;28;20045;-62
2023/04/18 05:38:10;;;;;;;15.18;7.88;;;7.80;99.90;;;;;;4169452;28;20045;-62
2023/04/18 05:40:11;;;;;;;13.18;8.18;;;7.80;99.90;;;;;;4164166;28;20051;-63
2023/04/18 05:42:12;;;;;;;10.93;7.45;;;7.80;99.90;;;;;;4161204;28;20041;-62
2023/04/18 05:44:13;;;;;;;16.83;9.40;;;7.80;99.90;;;;;;4165824;28;20087;-62
2023/04/18 05:46:13;;;;;;;13.75;8.52;;;7.90;99.90;;;;;;4168081;28;20051;-62
2023/04/18 05:48:14;;;;;;;13.60;9.13;;;7.90;99.90;;;;;;4165658;28;20041;-62
2023/04/18 05:50:15;;;;;;;13.68;8.25;;;8.00;99.90;;;;;;4166736;28;20041;-62
2023/04/18 05:52:15;;;;;;;15.45;8.73;;;8.10;99.90;;;;;;4168299;28;20041;-61
2023/04/18 05:54:16;;;;;;;14.65;8.93;;;8.10;99.90;;;;;;4164661;28;20049;-62
2023/04/18 05:56:16;;;;;;;15.27;8.93;;;8.10;99.90;;;;;;4165677;28;20033;-65
2023/04/18 05:58:17;;;;;;;17.05;9.60;;;8.10;99.90;;;;;;4169472;28;20041;-65
2023/04/18 06:00:18;;;;;;;12.55;8.27;;;8.10;99.90;;;;;;4166426;28;20041;-65
2023/04/18 06:02:19;;;;;;;15.18;9.02;;;8.20;99.90;;;;;;4165001;28;20033;-65
2023/04/18 06:04:20;;;;;;;12.30;8.80;;;8.20;99.90;;;;;;4165008;28;20044;-66
2023/04/18 06:06:21;;;;;;;16.08;8.95;;;8.30;99.90;;;;;;4162001;28;20057;-66
2023/04/18 06:08:21;;;;;;;13.13;8.77;;;8.40;99.90;;;;;;4164772;28;20041;-66
2023/04/18 06:10:22;;;;;;;14.45;8.98;;;8.40;99.90;;;;;;4166556;28;20068;-66
2023/04/18 06:12:23;;;;;;;11.75;7.85;;;8.40;99.90;;;;;;4169096;28;20083;-66
2023/04/18 06:14:24;;;;;;;15.30;8.13;;;8.50;99.90;;;;;;4164246;28;20061;-64
2023/04/18 06:16:25;;;;;;;15.45;9.00;;;8.60;99.90;;;;;;4164185;28;20033;-65
2023/04/18 06:18:26;;;;;;;13.23;7.68;;;8.70;99.90;;;;;;4168069;28;20437;-66
2023/04/18 06:20:26;;;;;;;13.27;9.00;;;8.80;99.90;;;;;;4165382;28;20042;-66
2023/04/18 06:22:27;;;;;;;10.98;7.80;;;8.90;99.90;;;;;;4167210;28;20034;-65
2023/04/18 06:24:27;;;;;;;15.75;8.20;;;9.00;99.90;;;;;;4167033;28;20051;-65
2023/04/18 06:26:30;;;;;;;13.32;7.88;;;9.10;99.90;;;;;;4168915;28;20112;-65
2023/04/18 06:28:31;;;;;;;16.27;8.45;;;9.30;99.90;;;;;;4169848;28;20033;-65
2023/04/18 06:30:32;;;;;;;12.90;8.57;;;9.40;99.90;;;;;;4160004;28;20082;-65
2023/04/18 06:32:32;;;;;;;11.93;8.80;;;9.50;99.90;;;;;;4163915;28;20033;-65
2023/04/18 06:34:33;;;;;;;13.52;7.90;;;9.60;99.90;;;;;;4168154;28;20052;-67
2023/04/18 06:36:34;;;;;;;12.43;8.38;;;9.60;99.90;;;;;;4166408;28;20034;-66
2023/04/18 06:38:34;;;;;;;10.63;7.53;;;9.70;99.90;;;;;;4167756;28;20092;-66
2023/04/18 06:40:35;;;;;;;10.55;7.70;;;9.80;99.90;;;;;;4169642;28;20083;-66
2023/04/18 06:42:36;;;;;;;10.70;7.95;;;9.90;99.90;;;;;;4169826;28;20480;-67
2023/04/18 06:44:36;;;;;;;11.27;7.90;;;10.00;99.90;;;;;;4163179;28;20041;-67
2023/04/18 06:46:37;;;;;;;10.73;7.68;;;10.20;99.90;;;;;;4164805;28;20377;-67
2023/04/18 06:48:37;;;;;;;11.00;7.65;;;10.40;99.90;;;;;;4165107;28;20029;-67
2023/04/18 06:50:38;;;;;;;11.68;7.93;;;10.40;99.90;;;;;;4164334;28;20439;-66
2023/04/18 06:52:43;;;;;;;11.45;7.75;;;10.40;99.90;;;;;;4165613;28;20029;-66
2023/04/18 06:54:43;;;;;;;12.57;7.80;;;10.60;99.90;;;;;;4175502;28;20064;-65
2023/04/18 06:56:44;;;;;;;10.23;7.55;;;10.60;99.90;;;;;;4171375;28;20030;-65
2023/04/18 06:58:45;;;;;;;11.73;8.25;;;10.70;99.90;;;;;;4176048;28;20045;-66
2023/04/18 07:00:50;;;;;;;12.30;7.97;;;10.80;99.90;;;;;;4174410;28;20516;-66
2023/04/18 07:02:51;;;;;;;11.88;7.28;;;10.90;99.90;;;;;;4179631;28;20051;-66
2023/04/18 07:04:51;;;;;;;9.43;6.90;;;11.00;99.90;;;;;;4175748;28;20036;-67
2023/04/18 07:06:52;;;;;;;8.18;6.32;;;11.10;99.90;;;;;;4169079;28;20473;-66
2023/04/18 07:08:54;;;;;;;12.70;7.15;;;11.40;99.90;;;;;;4168152;28;20041;-66
2023/04/18 07:10:55;;;;;;;10.40;7.18;;;11.50;99.90;;;;;;4164934;28;20033;-67
2023/04/18 07:12:56;;;;;;;9.35;6.25;;;11.50;99.90;;;;;;4172002;28;20051;-67
2023/04/18 07:14:56;;;;;;;12.38;6.85;;;11.60;99.90;;;;;;4172003;28;20045;-65
2023/04/18 07:16:57;;;;;;;9.70;6.65;;;11.80;99.90;;;;;;4172424;28;20112;-67
2023/04/18 07:18:57;;;;;;;11.80;7.95;;;11.90;99.90;;;;;;4172862;28;20090;-66
2023/04/18 07:20:58;;;;;;;10.85;7.38;;;11.70;99.90;;;;;;4165124;28;20034;-66
2023/04/18 07:22:59;;;;;;;10.15;7.03;;;11.70;99.90;;;;;;4172837;28;20473;-66
2023/04/18 07:24:59;;;;;;;8.55;6.65;;;11.90;99.90;;;;;;4168450;28;20552;-66
2023/04/18 07:27:02;;;;;;;13.70;8.07;;;12.10;99.90;;;;;;4166831;28;20060;-66
2023/04/18 07:29:03;;;;;;;11.35;7.72;;;12.20;99.90;;;;;;4167263;28;20037;-66
2023/04/18 07:31:03;;;;;;;13.65;8.15;;;12.30;99.90;;;;;;4163019;28;20388;-66
2023/04/18 07:33:05;;;;;;;9.32;7.40;;;12.40;99.90;;;;;;4165120;28;20025;-67
2023/04/18 07:35:06;;;;;;;10.57;7.40;;;12.50;99.90;;;;;;4172208;28;20040;-67
2023/04/18 07:37:07;;;;;;;11.48;7.78;;;12.60;99.90;;;;;;4173668;28;20036;-65
2023/04/18 07:39:08;;;;;;;10.10;7.45;;;12.60;99.90;;;;;;4172723;28;20052;-64
2023/04/18 07:41:08;;;;;;;12.57;7.95;;;12.50;99.90;;;;;;4168817;28;20104;-65
2023/04/18 07:43:09;;;;;;;14.32;8.20;;;12.40;99.90;;;;;;4173765;28;20032;-65
2023/04/18 07:45:10;;;;;;;10.10;7.70;;;12.40;99.90;;;;;;4174526;28;20105;-65
2023/04/18 07:47:10;;;;;;;15.82;8.55;;;12.60;99.90;;;;;;4172986;28;20037;-65
2023/04/18 07:49:11;;;;;;;13.98;8.50;;;12.30;99.90;;;;;;4173835;28;20029;-66
2023/04/18 07:51:11;;;;;;;12.52;8.77;;;12.10;99.90;;;;;;4173256;28;20419;-65
2023/04/18 07:53:13;;;;;;;12.20;7.72;;;12.10;99.90;;;;;;4167097;28;20098;-66
2023/04/18 07:55:13;;;;;;;10.55;7.38;;;12.20;99.90;;;;;;4173597;28;20030;-66
2023/04/18 07:57:14;;;;;;;12.88;8.40;;;11.60;99.90;;;;;;4174318;28;20033;-65
2023/04/18 07:59:15;;;;;;;14.82;7.68;;;11.40;99.90;;;;;;4176070;28;20124;-65
2023/04/18 08:01:17;;;;;;;13.10;8.40;;;11.30;99.90;;;;;;4166197;28;20384;-66
2023/04/18 08:03:18;;;;;;;12.05;9.00;;;11.30;99.90;;;;;;4172528;28;20034;-65
2023/04/18 08:05:19;;;;;;;11.95;8.82;;;10.80;99.90;;;;;;4176737;28;20043;-67
2023/04/18 08:07:19;;;;;;;12.23;8.25;;;10.80;99.90;;;;;;4174435;28;20053;-66
2023/04/18 08:09:20;;;;;;;12.27;8.48;;;10.80;99.90;;;;;;4179584;28;20057;-66
2023/04/18 08:11:21;;;;;;;13.27;10.18;;;10.90;99.90;;;;;;4170640;28;20032;-66
2023/04/18 08:13:21;;;;;;;15.93;10.48;;;10.90;99.90;;;;;;4174620;28;20040;-66
2023/04/18 08:15:22;;;;;;;14.40;10.02;;;10.70;99.90;;;;;;4174343;28;20029;-65
2023/04/18 08:17:23;;;;;;;14.13;10.32;;;10.50;99.90;;;;;;4168188;28;20481;-65
2023/04/18 08:19:23;;;;;;;12.75;9.68;;;10.40;99.90;;;;;;4168190;28;20071;-65
2023/04/18 08:21:25;;;;;;;14.18;9.88;;;10.50;99.90;;;;;;4167804;28;20040;-66
2023/04/18 08:23:26;;;;;;;12.32;9.60;;;10.50;99.90;;;;;;4165396;28;20036;-66
2023/04/18 08:25:26;;;;;;;11.23;8.40;;;10.40;99.90;;;;;;4174497;28;20045;-65
2023/04/18 08:27:27;;;;;;;17.80;10.02;;;10.50;99.90;;;;;;4169874;28;20506;-66
2023/04/18 08:29:28;;;;;;;13.93;9.48;;;10.50;99.90;;;;;;4175434;28;20036;-65
2023/04/18 08:31:30;;;;;;;15.02;10.55;;;10.60;99.90;;;;;;4166883;28;20487;-66
2023/04/18 08:33:30;;;;;;;17.48;11.30;;;10.50;99.90;;;;;;4162600;28;20044;-66
2023/04/18 08:35:31;;;;;;;15.52;10.90;;;10.20;99.90;;;;;;4165217;28;20045;-66
2023/04/18 08:37:34;;;;;;;13.68;9.88;;;10.10;99.90;;;;;;4165499;28;20029;-66
2023/04/18 08:39:34;;;;;;;18.13;11.00;;;10.10;99.90;;;;;;4174849;28;20465;-66
2023/04/18 08:41:39;;;;;;;14.77;10.68;;;10.10;99.90;;;;;;4171653;28;20079;-66
2023/04/18 08:43:39;;;;;;;13.38;10.48;;;10.00;99.90;;;;;;4179597;28;20159;-66
2023/04/18 08:45:42;;;;;;;15.52;11.20;;;9.90;99.90;;;;;;4178898;28;20029;-66
2023/04/18 08:47:42;;;;;;;;;;;10.00;99.90;;;;;;4177719;28;20029;-67
2023/04/18 08:49:44;;;;;;;16.27;11.30;;;10.10;99.90;;;;;;4173128;28;19989;-66
2023/04/18 08:51:48;;;;;;;15.30;11.23;;;10.00;99.90;;;;;;4176117;28;20063;-66
2023/04/18 08:53:49;;;;;;;23.63;10.90;;;10.10;99.90;;;;;;4167943;28;20026;-66
2023/04/18 08:55:56;;;;;;;17.85;12.25;;;10.10;99.90;;;;;;4167135;28;20040;-66
2023/04/18 08:57:57;;;;;;;20.85;10.68;;;10.10;99.90;;;;;;4170293;28;20226;-65
2023/04/18 09:00:00;;;;;;;18.75;10.95;;;10.10;99.90;;;;;;4177826;28;20372;-65
2023/04/18 09:02:03;;;;;;;14.30;9.45;;;10.20;99.90;;;;;;4170106;28;20119;-66
2023/04/18 09:04:05;;;;;;;;;;;10.20;99.90;;;;;;4169891;28;20040;-66
2023/04/18 09:06:13;;;;;;;14.93;9.68;;;10.20;99.90;;;;;;4170757;28;19909;-66
2023/04/18 09:08:23;;;;;;;15.05;9.73;;;10.30;99.90;;;;;;4164388;28;20033;-66
2023/04/18 09:10:33;;;;;;;18.52;11.38;;;10.40;99.90;;;;;;4174028;28;20510;-66
2023/04/18 09:12:48;;;;;;;16.02;10.38;;;10.40;99.90;;;;;;4178487;28;20488;-66
2023/04/18 09:14:51;;;;;;;17.17;11.20;;;10.40;99.90;;;;;;4173986;28;20036;-66
2023/04/18 09:16:52;;;;;;;16.85;10.32;;;10.30;99.90;;;;;;4170713;28;20036;-66
2023/04/18 09:19:22;;;;;;;21.85;12.27;;;10.30;99.90;;;;;;4173411;28;20028;-66
2023/04/18 09:21:23;;;;;;;17.30;10.70;;;10.20;99.90;;;;;;4143114;28;20052;-65
2023/04/18 09:23:24;;;;;;;15.40;9.70;;;10.20;99.90;;;;;;4167423;28;20037;-66
2023/04/18 09:25:46;;;;;;;15.88;10.52;;;10.20;99.90;;;;;;4174471;28;20033;-66
2023/04/18 09:27:47;;;;;;;17.52;10.38;;;10.30;99.90;;;;;;4165716;28;20030;-66
2023/04/18 09:29:48;;;;;;;15.88;10.18;;;10.40;99.90;;;;;;4173174;28;20036;-66
2023/04/18 09:31:53;;;;;;;17.08;11.10;;;10.40;99.90;;;;;;4167407;28;20388;-66
2023/04/18 09:33:55;;;;;;;17.05;11.80;;;10.50;99.90;;;;;;4175019;28;20041;-65
2023/04/18 09:36:14;;;;;;;18.15;11.70;;;10.50;99.90;;;;;;4170734;28;20045;-66
2023/04/18 09:38:14;;;;;;;17.55;10.75;;;10.40;99.90;;;;;;4166289;28;20034;-66
2023/04/18 09:40:20;;;;;;;17.63;11.23;;;10.30;99.90;;;;;;4171415;28;20124;-66
2023/04/18 09:42:21;;;;;;;17.63;10.43;;;10.30;99.90;;;;;;4172377;28;20041;-65
2023/04/18 09:44:21;;;;;;;16.52;10.25;;;10.40;99.90;;;;;;4167568;28;20043;-66
2023/04/18 09:46:22;;;;;;;18.65;10.73;;;10.50;99.90;;;;;;4168891;28;20388;-66
2023/04/18 09:48:23;;;;;;;18.13;10.35;;;10.30;99.90;;;;;;4163761;28;20087;-66
2023/04/18 09:50:23;;;;;;;15.75;10.45;;;10.20;99.90;;;;;;4168998;28;20041;-66
2023/04/18 09:52:24;;;;;;;16.10;10.30;;;10.30;99.90;;;;;;4167935;28;20184;-66
2023/04/18 09:54:29;;;;;;;17.95;10.95;;;10.20;99.90;;;;;;4174699;28;20052;-66
2023/04/18 09:56:31;;;;;;;14.02;9.85;;;10.20;99.90;;;;;;4173899;28;20491;-66
2023/04/18 09:58:35;;;;;;;16.67;10.80;;;10.20;99.90;;;;;;4173062;28;20042;-66
2023/04/18 10:00:38;;;;;;;17.48;11.40;;;10.20;99.90;;;;;;4159894;28;20502;-66
2023/04/18 10:02:49;;;;;;;19.98;11.27;;;10.10;99.90;;;;;;4161731;28;20500;-66
2023/04/18 10:04:52;;;;;;;16.98;11.13;;;10.10;99.90;;;;;;4165880;28;20065;-65
2023/04/18 10:06:53;;;;;;;18.55;11.50;;;10.20;99.90;;;;;;4161717;28;20432;-65
2023/04/18 10:08:54;;;;;;;15.60;10.40;;;10.10;99.90;;;;;;4169816;28;20034;-65
2023/04/18 10:10:57;;;;;;;14.82;10.20;;;10.20;99.90;;;;;;4170105;28;20040;-65
2023/04/18 10:13:00;;;;;;;15.95;10.82;;;10.20;99.90;;;;;;4169515;28;20025;-65
2023/04/18 10:15:01;;;;;;;16.92;10.80;;;10.30;99.90;;;;;;4171330;28;20033;-65
2023/04/18 10:17:01;;;;;;;16.50;10.57;;;10.30;99.90;;;;;;4173395;28;20029;-66
2023/04/18 10:19:25;;;;;;;15.55;10.93;;;10.40;99.90;;;;;;4163170;28;20069;-65
2023/04/18 10:21:27;;;;;;;15.80;11.18;;;10.40;99.90;;;;;;4169469;28;20029;-65
2023/04/18 10:23:31;;;;;;;20.60;12.93;;;10.40;99.90;;;;;;4174011;28;20488;-66
2023/04/18 10:25:37;;;;;;;17.58;11.52;;;10.30;99.90;;;;;;4170158;28;20506;-66
2023/04/18 10:28:05;;;;;;;15.10;11.27;;;10.30;99.90;;;;;;4166130;28;20029;-66
2023/04/18 10:30:06;;;;;;;16.10;11.40;;;10.40;99.90;;;;;;4159592;28;20491;-67
2023/04/18 10:32:07;;;;;;;16.70;11.18;;;10.40;99.90;;;;;;4172276;28;20116;-66